Portada
METAR-TAF:

METAR-TAF

Aeroports :

Phrae, Tailàndia

latitud: 18-10N, longitud: 100-10E, altitud: 161 m

Observació

L'informe es va fer fa 51 minuts, a les 07:00 UTC
Vent 3 kt amb direcció variable
Temperatura 35°C
Humitat 47%
Pressió 1012 hPa
Visibilitat 10 km o més
Núvols disperses a una alçada de 2500 ft

METAR: VTCP 150700Z VRB03KT 9999 SCT025 35/22 Q1012 NOSIG

Hora: 14:51 (07:51 UTC)

Pronòstic

L'informe es va fer fa 2 hores i 51 minuts, a les 05:00 UTC
Pronòstic vàlid del 15 a les 06 UTC al 16 a les 06 UTC
Vent 5 kt del Nord-Est
Visibilitat 10 km o més
Escasses núvols a una alçada de 2500 ft
Evolucionant progressivament
l' 15 a les 21 UTC al 15 a les 23 UTC
Visibilitat: 4000 m
boirina
Evolucionant progressivament
l' 16 a les 01 UTC al 16 a les 03 UTC
Visibilitat 10 km o més

TAF: VTCP 150500Z 1506/1606 04005KT 9999 FEW025 BECMG 1521/1523 4000 BR BECMG 1601/1603 9999 NSW

Observacions i pronòstics meteorològics de més de 4000 aeroports (METAR i TAF).

Les estacions disponibles són els punts grocs i vermells al mapa.

Posi el ratolí al punt desitjat per veure el nom de l'estació.

Feu clic per veure les observacions i els pronòstics meteorològics.

Per canviar el mapa: feu clic els botons verds amb una creu de color negre per apropar; al botó verd amb un guió per allunyar la imatge; o en les fletxes verdes per a mapes adjacents.


METAR-TAF: